Time;durP1;ratioP1;P1;durP2;ratioP2;P2;SDS_P1;SDS_P2;PMS_P1;PMS_P2;Temp;Humidity;BMP_temperature;BMP_pressure;BME280_temperature;BME280_humidity;BME280_pressure;Samples;Min_cycle;Max_cycle;Signal;HPM_P1;HPM_P2
2022/11/27 00:03:22;;;;;;;18.88;10.80;;;;;;;9.06;100.00;101125.28;10230606;28;97055;-84
2022/11/27 00:08:27;;;;;;;14.23;10.23;;;;;;;9.08;100.00;101115.69;10229596;28;97159;-85
2022/11/27 00:13:30;;;;;;;;;;;;;;;9.00;100.00;101109.72;10213432;28;98309;-81
2022/11/27 00:18:33;;;;;;;12.68;9.43;;;;;;;8.99;100.00;101112.34;10205505;28;99345;-81
2022/11/27 00:23:38;;;;;;;15.07;9.57;;;;;;;9.01;100.00;101100.97;10202581;28;96863;-81
2022/11/27 00:28:42;;;;;;;14.13;9.93;;;;;;;8.99;100.00;101081.88;10188108;28;98269;-80
2022/11/27 00:33:48;;;;;;;16.10;10.07;;;;;;;8.95;100.00;101081.94;10197134;28;96804;-81
2022/11/27 00:38:54;;;;;;;13.75;9.68;;;;;;;8.95;100.00;101075.00;10210198;28;98661;-81
2022/11/27 00:43:59;;;;;;;13.80;9.55;;;;;;;8.95;100.00;101077.59;10213933;28;96907;-81
2022/11/27 00:49:06;;;;;;;17.40;10.13;;;;;;;8.90;100.00;101061.13;10192970;28;96843;-81
2022/11/27 00:54:11;;;;;;;14.35;9.45;;;;;;;8.88;100.00;101063.75;10203978;28;96782;-80
2022/11/27 00:59:15;;;;;;;12.93;9.80;;;;;;;8.82;100.00;101050.78;10180217;28;97537;-80
2022/11/27 01:04:18;;;;;;;14.00;9.45;;;;;;;8.71;100.00;101037.88;10197308;28;96807;-81
2022/11/27 01:09:22;;;;;;;13.75;10.13;;;;;;;8.69;100.00;101029.22;10194024;28;97414;-81
2022/11/27 01:14:25;;;;;;;15.27;9.60;;;;;;;8.71;100.00;101034.41;10179293;28;96789;-80
2022/11/27 01:19:29;;;;;;;13.27;9.18;;;;;;;8.69;100.00;101021.41;10202441;28;96866;-81
2022/11/27 01:24:33;;;;;;;12.38;9.48;;;;;;;8.71;100.00;101026.59;10207478;28;97173;-80
2022/11/27 01:29:36;;;;;;;14.63;9.73;;;;;;;8.70;100.00;101023.09;10180975;28;97166;-79
2022/11/27 01:34:40;;;;;;;12.77;9.27;;;;;;;8.61;100.00;101025.81;10191646;28;96786;-79
2022/11/27 01:39:47;;;;;;;13.88;9.05;;;;;;;8.68;100.00;101027.47;10193106;28;97327;-80
2022/11/27 01:44:53;;;;;;;12.13;8.48;;;;;;;8.75;100.00;101025.66;10188194;28;97308;-80
2022/11/27 01:50:03;;;;;;;14.00;8.90;;;;;;;8.71;100.00;101019.63;10181665;28;96916;-80
2022/11/27 01:55:19;;;;;;;14.50;8.80;;;;;;;8.68;100.00;101017.03;10191063;28;97761;-80
2022/11/27 02:00:22;;;;;;;;;;;;;;;8.61;100.00;101023.22;10206086;28;98498;-80
2022/11/27 02:05:28;;;;;;;12.38;8.43;;;;;;;8.61;100.00;101033.66;10218256;28;96957;-80
2022/11/27 02:10:46;;;;;;;14.80;8.85;;;;;;;8.58;100.00;101038.88;10208679;28;96910;-80
2022/11/27 02:15:57;;;;;;;12.93;9.13;;;;;;;8.58;100.00;101040.63;10193936;28;97239;-80
2022/11/27 02:21:10;;;;;;;12.05;8.85;;;;;;;8.53;100.00;101038.06;10196149;28;96958;-79
2022/11/27 02:26:52;;;;;;;16.77;9.05;;;;;;;8.54;100.00;101037.22;10200576;28;96757;-82
2022/11/27 02:32:05;;;;;;;14.90;9.32;;;;;;;8.56;100.00;101040.66;10184967;28;96912;-83
2022/11/27 02:37:15;;;;;;;15.15;9.52;;;;;;;8.46;100.00;101044.22;10194517;28;97192;-80
2022/11/27 02:42:21;;;;;;;14.02;8.75;;;;;;;8.39;100.00;101043.44;10199764;28;97299;-85
2022/11/27 02:47:28;;;;;;;15.13;8.93;;;;;;;8.38;100.00;101041.72;10213023;28;97770;-83
2022/11/27 02:52:33;;;;;;;11.80;8.38;;;;;;;8.41;100.00;101040.81;10187548;28;99039;-78
2022/11/27 02:57:39;;;;;;;13.98;8.02;;;;;;;8.36;100.00;101051.31;10213123;28;96865;-76
2022/11/27 03:02:49;;;;;;;11.27;8.45;;;;;;;8.36;100.00;101038.28;10217206;28;96937;-76
2022/11/27 03:08:02;;;;;;;11.23;8.50;;;;;;;8.31;100.00;101035.72;10189554;28;96977;-76
2022/11/27 03:13:06;;;;;;;12.18;8.35;;;;;;;8.31;100.00;101035.72;10211276;28;97250;-77
2022/11/27 03:18:22;;;;;;;11.95;8.00;;;;;;;8.28;100.00;101035.72;10205046;28;98991;-76
2022/11/27 03:23:27;;;;;;;12.38;7.90;;;;;;;8.26;100.00;101037.50;10213113;28;96776;-76
2022/11/27 03:28:31;;;;;;;12.80;7.93;;;;;;;8.25;100.00;101029.69;10201285;28;97364;-76
2022/11/27 03:33:36;;;;;;;12.10;8.05;;;;;;;8.23;100.00;101021.88;10201589;28;100394;-76
2022/11/27 03:38:39;;;;;;;14.98;8.23;;;;;;;8.19;100.00;101028.00;10196560;28;96878;-76
2022/11/27 03:43:50;;;;;;;13.75;7.90;;;;;;;8.15;100.00;101019.38;10197765;28;96943;-76
2022/11/27 03:49:04;;;;;;;11.73;7.72;;;;;;;8.05;100.00;101012.50;10200890;28;98751;-76
2022/11/27 03:54:14;;;;;;;14.20;8.07;;;;;;;8.03;100.00;101003.84;10202506;28;99441;-76
2022/11/27 03:59:23;;;;;;;10.77;7.45;;;;;;;8.07;100.00;100994.28;10197862;28;96906;-77
2022/11/27 04:04:31;;;;;;;12.30;7.55;;;;;;;8.13;100.00;100984.66;10199808;28;98536;-77
2022/11/27 04:09:35;;;;;;;10.90;7.45;;;;;;;8.09;100.00;100982.09;10201681;28;96798;-77
2022/11/27 04:14:39;;;;;;;10.00;6.93;;;;;;;8.08;100.00;100976.03;10198769;28;98946;-77
2022/11/27 04:19:44;;;;;;;13.77;7.20;;;;;;;8.05;100.00;100988.19;10201151;28;98582;-77
2022/11/27 04:24:51;;;;;;;8.38;6.70;;;;;;;8.02;100.00;101002.13;10198120;28;99267;-77
2022/11/27 04:29:55;;;;;;;12.00;7.10;;;;;;;8.06;100.00;101002.94;10195607;28;96839;-77
2022/11/27 04:35:00;;;;;;;10.07;6.93;;;;;;;8.00;100.00;101010.84;10197533;28;98828;-77
2022/11/27 04:40:08;;;;;;;12.00;7.88;;;;;;;7.94;100.00;101012.63;10195457;28;96840;-77
2022/11/27 04:45:13;;;;;;;9.20;7.03;;;;;;;7.77;100.00;101014.47;10200104;28;98557;-77
2022/11/27 04:50:18;;;;;;;13.23;7.07;;;;;;;7.58;100.00;101017.25;10197775;28;98496;-77
2022/11/27 04:55:21;;;;;;;10.60;7.38;;;;;;;7.49;100.00;101012.13;10196756;28;98863;-77
2022/11/27 05:00:24;;;;;;;11.93;6.53;;;;;;;7.43;100.00;101017.34;10195044;28;99070;-77
2022/11/27 05:05:29;;;;;;;12.32;7.20;;;;;;;7.48;100.00;101010.38;10195514;28;98410;-77
2022/11/27 05:10:32;;;;;;;9.70;6.10;;;;;;;7.67;100.00;101025.88;10193293;28;98201;-78
2022/11/27 05:15:36;;;;;;;9.05;6.55;;;;;;;7.81;100.00;101029.22;10198390;28;98499;-77
2022/11/27 05:20:48;;;;;;;9.90;6.90;;;;;;;7.80;100.00;101027.47;10200739;28;98810;-77
2022/11/27 05:25:53;;;;;;;9.40;6.82;;;;;;;7.64;100.00;101020.69;10195997;28;97643;-77
2022/11/27 05:30:58;;;;;;;10.63;6.45;;;;;;;7.65;100.00;101009.38;10199926;28;97010;-77
2022/11/27 05:36:03;;;;;;;10.13;6.80;;;;;;;7.59;100.00;101003.34;10195446;28;97656;-77
2022/11/27 05:41:06;;;;;;;10.18;6.43;;;;;;;7.59;100.00;101015.50;10196927;28;97707;-77
2022/11/27 05:46:14;;;;;;;9.52;6.88;;;;;;;7.63;100.00;101021.53;10196039;28;98848;-77
2022/11/27 05:51:19;;;;;;;10.20;6.07;;;;;;;7.67;100.00;101015.47;10196575;28;98940;-77
2022/11/27 05:56:22;;;;;;;10.02;6.88;;;;;;;7.65;100.00;101019.78;10198521;28;98655;-78
2022/11/27 06:01:25;;;;;;;9.95;6.18;;;;;;;7.69;100.00;101014.56;10200260;28;98641;-77
2022/11/27 06:06:31;;;;;;;12.65;6.80;;;;;;;7.66;100.00;101009.38;10202249;28;99094;-77
2022/11/27 06:11:34;;;;;;;;;;;;;;;7.62;100.00;101019.84;10195469;28;97224;-77
2022/11/27 06:16:37;;;;;;;8.48;6.45;;;;;;;7.63;100.00;101009.41;10191412;28;98694;-77
2022/11/27 06:21:42;;;;;;;10.70;6.65;;;;;;;7.60;100.00;101005.06;10198733;28;98319;-77
2022/11/27 06:26:47;;;;;;;12.15;7.18;;;;;;;7.57;100.00;101005.09;10196505;28;99097;-77
2022/11/27 06:31:50;;;;;;;9.73;6.70;;;;;;;7.54;100.00;101005.09;10187358;28;98332;-77
2022/11/27 06:36:55;;;;;;;9.30;6.57;;;;;;;7.47;100.00;101003.44;10196320;28;98903;-77
2022/11/27 06:41:59;;;;;;;11.55;6.80;;;;;;;7.49;100.00;101001.72;10191487;28;97770;-77
2022/11/27 06:47:02;;;;;;;9.65;6.75;;;;;;;7.43;100.00;100995.69;10197047;28;97245;-77
2022/11/27 06:52:07;;;;;;;8.98;6.72;;;;;;;7.47;100.00;100987.81;10196594;28;98976;-77
2022/11/27 06:57:11;;;;;;;9.48;6.65;;;;;;;7.41;100.00;100964.47;10197223;28;100263;-77
2022/11/27 07:02:15;;;;;;;9.25;6.45;;;;;;;7.39;100.00;100958.41;10193537;28;99055;-76
2022/11/27 07:07:20;;;;;;;10.20;7.03;;;;;;;7.30;100.00;100953.25;10195360;28;97297;-76
2022/11/27 07:12:30;;;;;;;9.55;6.72;;;;;;;7.27;100.00;100948.06;10205212;28;97105;-78
2022/11/27 07:17:34;;;;;;;10.57;6.88;;;;;;;7.29;100.00;100942.00;10196515;28;98654;-78
2022/11/27 07:22:40;;;;;;;11.27;6.53;;;;;;;7.27;100.00;100942.88;10199547;28;97598;-75
2022/11/27 07:27:44;;;;;;;10.30;6.90;;;;;;;7.28;100.00;100944.59;10197244;28;97238;-75
2022/11/27 07:32:47;;;;;;;10.80;6.78;;;;;;;7.32;100.00;100938.50;10202467;28;98491;-75
2022/11/27 07:37:52;;;;;;;8.50;5.88;;;;;;;7.38;100.00;100941.91;10196373;28;99256;-75
2022/11/27 07:42:55;;;;;;;9.98;6.00;;;;;;;7.46;100.00;100949.69;10208161;28;98418;-77
2022/11/27 07:47:58;;;;;;;10.15;6.28;;;;;;;7.53;100.00;100934.88;10198095;28;98696;-77
2022/11/27 07:53:03;;;;;;;9.98;6.40;;;;;;;7.51;100.00;100937.50;10200953;28;97360;-77
2022/11/27 07:58:06;;;;;;;7.47;5.45;;;;;;;7.55;100.00;100933.13;10195039;28;98793;-77
2022/11/27 08:03:11;;;;;;;9.23;5.33;;;;;;;7.65;100.00;100936.50;10201708;28;98539;-78
2022/11/27 08:08:16;;;;;;;10.15;5.85;;;;;;;7.65;100.00;100923.47;10197519;28;98232;-76
2022/11/27 08:13:19;;;;;;;7.88;6.03;;;;;;;7.65;100.00;100928.69;10196301;28;96823;-78
2022/11/27 08:18:22;;;;;;;9.25;6.57;;;;;;;7.61;100.00;100907.03;10190146;28;98636;-79
2022/11/27 08:23:27;;;;;;;8.25;5.90;;;;;;;7.66;100.00;100910.44;10196459;28;97399;-79
2022/11/27 08:28:30;;;;;;;9.88;6.47;;;;;;;7.71;100.00;100900.84;10201125;28;99292;-78
2022/11/27 08:33:34;;;;;;;9.35;6.07;;;;;;;7.64;100.00;100909.59;10196221;28;98084;-83
2022/11/27 08:38:39;;;;;;;8.35;5.70;;;;;;;7.76;100.00;100916.44;10207551;28;96805;-82
2022/11/27 08:43:42;;;;;;;8.88;5.78;;;;;;;7.88;100.00;100916.31;10204708;28;97645;-84
2022/11/27 08:48:45;;;;;;;7.15;5.80;;;;;;;7.88;100.00;100926.72;10200552;28;97235;-81
2022/11/27 08:53:53;;;;;;;10.10;5.78;;;;;;;7.84;100.00;100922.44;10198703;28;97076;-82
2022/11/27 08:58:56;;;;;;;9.25;6.53;;;;;;;7.85;100.00;100926.75;10205002;28;99017;-81
2022/11/27 09:04:02;;;;;;;8.75;6.35;;;;;;;8.01;100.00;100916.19;10188670;28;99348;-79
2022/11/27 09:09:07;;;;;;;10.05;6.78;;;;;;;8.06;100.00;100920.44;10189332;28;98888;-78
2022/11/27 09:14:12;;;;;;;8.05;6.10;;;;;;;8.08;100.00;100912.63;10193114;28;98066;-79
2022/11/27 09:19:16;;;;;;;8.90;6.60;;;;;;;8.10;100.00;100923.88;10192174;28;97079;-87
2022/11/27 09:24:22;;;;;;;9.90;5.78;;;;;;;8.20;100.00;100906.41;10207889;28;96944;-78
2022/11/27 09:29:25;;;;;;;8.30;5.80;;;;;;;8.25;100.00;100904.63;10202440;28;99133;-83
2022/11/27 09:34:31;;;;;;;9.15;5.95;;;;;;;8.35;100.00;100896.66;10200389;28;98656;-84
2022/11/27 09:39:41;;;;;;;8.50;6.40;;;;;;;8.37;100.00;100898.41;10184418;28;97570;-82
2022/11/27 09:44:48;;;;;;;7.57;5.75;;;;;;;8.35;100.00;100899.28;10203262;28;97541;-84
2022/11/27 09:49:58;;;;;;;10.25;6.25;;;;;;;8.40;100.00;100901.84;10215262;28;97006;-82
2022/11/27 09:55:11;;;;;;;5.43;3.83;;;;;;;8.46;100.00;100903.50;10184237;28;99268;-81
2022/11/27 10:00:17;;;;;;;8.88;5.95;;;;;;;8.33;100.00;100908.00;10195787;28;98520;-77
2022/11/27 10:05:23;;;;;;;8.35;5.88;;;;;;;8.47;100.00;100894.81;10193176;28;100164;-78
2022/11/27 10:10:39;;;;;;;9.98;5.80;;;;;;;8.54;100.00;100893.84;10183633;28;99170;-85
2022/11/27 10:15:51;;;;;;;11.90;5.90;;;;;;;8.62;100.00;100886.78;10195265;28;97744;-81
2022/11/27 10:21:00;;;;;;;10.48;6.47;;;;;;;8.80;100.00;100900.44;10193347;28;98245;-76
2022/11/27 10:26:11;;;;;;;9.40;6.20;;;;;;;8.82;100.00;100896.06;10207215;28;97021;-78
2022/11/27 10:31:22;;;;;;;8.80;5.53;;;;;;;8.75;100.00;100903.09;10186822;28;99035;-79
2022/11/27 10:36:30;;;;;;;8.63;5.93;;;;;;;8.83;100.00;100900.38;10190901;28;98683;-81
2022/11/27 10:41:40;;;;;;;7.65;5.60;;;;;;;8.76;100.00;100896.13;10222754;28;98725;-81
2022/11/27 10:46:54;;;;;;;9.32;5.43;;;;;;;8.69;100.00;100903.16;10198675;28;98384;-85
2022/11/27 10:51:59;;;;;;;10.45;6.03;;;;;;;8.63;100.00;100892.84;10221671;28;97741;-82
2022/11/27 10:57:11;;;;;;;;;;;;;;;8.50;100.00;100892.16;10211181;28;97803;-81
2022/11/27 11:02:29;;;;;;;25.73;16.50;;;;;;;8.50;100.00;100899.97;10203876;28;99345;-82
2022/11/27 11:07:33;;;;;;;20.10;14.40;;;;;;;8.46;100.00;100906.94;10207119;28;98453;-83
2022/11/27 11:12:37;;;;;;;11.93;7.80;;;;;;;8.52;100.00;100908.63;10194794;28;97335;-82
2022/11/27 11:17:40;;;;;;;11.25;8.48;;;;;;;8.59;100.00;100892.03;10214800;28;97245;-83
2022/11/27 11:22:45;;;;;;;12.38;9.93;;;;;;;8.70;100.00;100882.28;10185751;28;96911;-80
2022/11/27 11:27:51;;;;;;;;;;;;;;;8.82;100.00;100890.84;10216391;28;97795;-84
2022/11/27 11:33:01;;;;;;;8.77;6.43;;;;;;;8.90;100.00;100875.94;10205408;28;98940;-84
2022/11/27 11:38:06;;;;;;;10.82;7.18;;;;;;;8.69;100.00;100877.97;10205245;28;96990;-86
2022/11/27 11:43:25;;;;;;;8.93;6.43;;;;;;;8.82;100.00;100864.75;10193640;28;97697;-81
2022/11/27 11:48:28;;;;;;;13.02;8.00;;;;;;;8.95;100.00;100845.44;10202715;28;97772;-83
2022/11/27 11:53:36;;;;;;;23.13;20.92;;;;;;;8.96;100.00;100861.94;10212956;28;98443;-83
2022/11/27 11:58:52;;;;;;;15.27;13.70;;;;;;;9.04;100.00;100860.94;10202954;28;96941;-82
2022/11/27 12:04:07;;;;;;;11.10;9.45;;;;;;;9.00;100.00;100877.53;10216757;28;96807;-83
2022/11/27 12:09:17;;;;;;;;;;;;;;;8.80;100.00;100882.19;10211265;28;97011;-84
2022/11/27 12:14:40;;;;;;;12.82;10.13;;;;;;;8.88;100.00;100870.75;10219647;28;98423;-82
2022/11/27 12:20:03;;;;;;;10.35;7.95;;;;;;;9.05;100.00;100859.19;10195529;28;96867;-87
2022/11/27 12:25:23;;;;;;;12.30;7.78;;;;;;;9.10;100.00;100834.72;10192258;28;99000;-89
2022/11/27 12:30:37;;;;;;;12.70;8.57;;;;;;;9.14;100.00;100814.66;10197667;28;97768;-83
2022/11/27 12:35:46;;;;;;;11.48;8.80;;;;;;;9.13;100.00;100780.81;10199148;28;98614;-87
2022/11/27 12:41:19;;;;;;;10.15;7.95;;;;;;;9.02;100.00;100784.47;10217723;28;96917;-84
2022/11/27 12:46:31;;;;;;;11.15;7.68;;;;;;;8.89;100.00;100804.66;10204112;28;98855;-82
2022/11/27 12:51:42;;;;;;;9.98;6.95;;;;;;;8.79;100.00;100760.50;10198669;28;99082;-86
2022/11/27 12:56:50;;;;;;;10.05;7.30;;;;;;;8.72;100.00;100775.38;10189693;28;99625;-85
2022/11/27 13:02:03;;;;;;;10.85;7.75;;;;;;;8.68;100.00;100764.13;10208528;28;96789;-86
2022/11/27 13:07:10;;;;;;;11.60;7.70;;;;;;;8.83;100.00;100773.47;10201031;28;97060;-81
2022/11/27 13:12:24;;;;;;;10.35;7.40;;;;;;;8.92;100.00;100777.66;10189096;28;96843;-80
2022/11/27 13:17:37;;;;;;;12.32;8.98;;;;;;;9.19;100.00;100770.25;10209900;28;97114;-84
2022/11/27 13:22:42;;;;;;;11.50;7.95;;;;;;;9.44;100.00;100766.31;10192686;28;97416;-83
2022/11/27 13:27:49;;;;;;;9.85;7.93;;;;;;;9.54;100.00;100776.56;10196579;28;99024;-85
2022/11/27 13:32:58;;;;;;;8.27;7.25;;;;;;;9.52;100.00;100767.91;10201007;28;97442;-86
2022/11/27 13:38:08;;;;;;;9.23;7.22;;;;;;;9.57;100.00;100772.16;10184941;28;98931;-87
2022/11/27 13:43:22;;;;;;;9.35;7.18;;;;;;;9.57;100.00;100774.78;10191441;28;97319;-88
2022/11/27 13:48:33;;;;;;;9.10;7.03;;;;;;;9.48;100.00;100790.63;10189881;28;98806;-87
2022/11/27 13:53:39;;;;;;;8.93;6.82;;;;;;;9.47;100.00;100788.88;10194968;28;97610;-87
2022/11/27 13:58:44;;;;;;;8.55;6.88;;;;;;;9.54;100.00;100771.34;10186848;28;98782;-81
2022/11/27 14:03:51;;;;;;;9.63;7.68;;;;;;;9.58;100.00;100767.81;10207548;28;98569;-88
2022/11/27 14:09:01;;;;;;;9.38;6.38;;;;;;;9.56;100.00;100769.56;10203127;28;96931;-83
2022/11/27 14:14:15;;;;;;;10.13;6.30;;;;;;;9.56;100.00;100769.56;10194947;28;97604;-81
2022/11/27 14:19:41;;;;;;;9.98;6.85;;;;;;;9.41;100.00;100765.50;10196776;28;97683;-83
2022/11/27 14:24:54;;;;;;;10.50;7.35;;;;;;;9.35;100.00;100755.16;10209228;28;97514;-83
2022/11/27 14:29:59;;;;;;;9.88;7.07;;;;;;;9.34;100.00;100756.91;10199356;28;97717;-87
2022/11/27 14:35:04;;;;;;;8.35;6.82;;;;;;;9.38;100.00;100753.34;10207915;28;98831;-84
2022/11/27 14:40:12;;;;;;;;;;;;;;;9.32;100.00;100740.44;10195919;28;98575;-86
2022/11/27 14:45:17;;;;;;;9.25;7.18;;;;;;;9.41;100.00;100721.13;10212002;28;97390;-90
2022/11/27 14:50:31;;;;;;;;;;;;;;;9.42;100.00;100712.38;10205877;28;98403;-92
2022/11/27 14:55:34;;;;;;;8.57;7.00;;;;;;;9.47;100.00;100714.06;10212076;28;97573;-86
2022/11/27 15:00:38;;;;;;;10.27;7.78;;;;;;;9.61;100.00;100685.06;10206387;28;99186;-79
2022/11/27 15:05:57;;;;;;;9.60;7.40;;;;;;;10.93;100.00;100686.28;10208738;28;97878;-80
2022/11/27 15:16:23;;;;;;;13.57;6.93;;;;;;;16.98;nan;100997.47;10444869;27;98819;-52
2022/11/27 15:21:27;;;;;;;10.32;6.55;;;;;;;17.46;nan;100988.63;10409766;27;99059;-51
2022/11/27 15:26:34;;;;;;;11.73;6.35;;;;;;;18.01;nan;100999.63;10399948;27;98703;-55
2022/11/27 15:31:39;;;;;;;7.35;6.05;;;;;;;18.43;nan;100986.44;10402575;27;97700;-53
2022/11/27 15:36:43;;;;;;;;;;;;;;;18.58;nan;100990.00;10397578;27;98607;-57
2022/11/27 15:41:57;;;;;;;13.27;8.95;;;;;;;18.60;nan;101001.44;10393492;28;97804;-51
2022/11/27 15:47:04;;;;;;;8.80;7.38;;;;;;;18.70;nan;100995.47;10390351;27;98874;-49
2022/11/27 15:52:07;;;;;;;11.10;7.50;;;;;;;18.85;nan;101004.34;10402179;27;99358;-48
2022/11/27 15:57:10;;;;;;;9.85;7.40;;;;;;;18.96;nan;101007.19;10402591;27;97264;-46
2022/11/27 16:02:15;;;;;;;12.57;6.97;;;;;;;19.03;nan;101009.38;10402076;28;96937;-47
2022/11/27 16:07:20;;;;;;;10.15;7.07;;;;;;;19.07;nan;100994.03;10403176;27;99088;-48
2022/11/27 16:12:23;;;;;;;12.60;7.47;;;;;;;19.09;nan;100997.47;10396768;27;98967;-46
2022/11/27 16:17:28;;;;;;;9.18;6.82;;;;;;;19.08;nan;101003.75;10387591;28;98535;-48
2022/11/27 16:22:31;;;;;;;;;;;;;;;19.05;nan;101006.63;10395835;28;100598;-51
2022/11/27 16:27:34;;;;;;;9.15;6.25;;;;;;;19.04;nan;100989.75;10370860;28;97730;-47
2022/11/27 16:32:39;;;;;;;11.35;7.25;;;;;;;19.04;nan;100995.06;10365350;28;97464;-47
2022/11/27 16:37:43;;;;;;;9.13;6.40;;;;;;;19.06;nan;100995.84;10367980;28;98813;-49
2022/11/27 16:42:46;;;;;;;9.32;6.25;;;;;;;19.07;nan;100983.38;10359321;28;98668;-46
2022/11/27 16:47:51;;;;;;;10.73;6.72;;;;;;;19.06;nan;100989.66;10381677;28;96731;-46
2022/11/27 16:52:54;;;;;;;;;;;;;;;19.04;nan;101012.91;10363561;28;97787;-46
2022/11/27 16:57:57;;;;;;;9.32;6.03;;;;;;;19.02;nan;101026.34;10363478;28;98392;-47
2022/11/27 17:03:02;;;;;;;9.10;6.43;;;;;;;22.03;nan;100414.09;10292371;27;98340;-64
2022/11/27 17:08:05;;;;;;;;;;;;;;;16.55;nan;100445.38;10343423;28;98385;-65
2022/11/27 17:13:08;;;;;;;8.88;5.50;;;;;;;15.81;nan;100472.84;10328387;28;99103;-61
2022/11/27 17:18:13;;;;;;;9.52;5.75;;;;;;;15.68;nan;100482.47;10341648;28;98498;-62
2022/11/27 17:23:16;;;;;;;8.27;5.63;;;;;;;15.56;nan;100515.81;10322127;28;99030;-64
2022/11/27 17:28:19;;;;;;;8.85;5.40;;;;;;;15.56;nan;100536.22;10323365;28;98924;-68
2022/11/27 17:33:24;;;;;;;8.05;5.50;;;;;;;15.51;nan;100538.25;10319188;28;97208;-62
2022/11/27 17:38:27;;;;;;;;;;;;;;;15.49;nan;100542.78;10319784;28;97311;-60
2022/11/27 17:43:30;;;;;;;9.00;5.57;;;;;;;15.55;nan;100553.03;10319690;28;97275;-65
2022/11/27 17:48:35;;;;;;;6.47;5.40;;;;;;;15.51;nan;100560.31;10321042;28;98731;-69
2022/11/27 17:53:38;;;;;;;;;;;;;;;15.51;nan;100559.47;10330167;28;98370;-62
2022/11/27 17:58:42;;;;;;;9.15;6.05;;;;;;;15.53;nan;100576.13;10321624;28;97520;-64
2022/11/27 18:03:47;;;;;;;9.85;5.55;;;;;;;15.51;nan;100580.69;10319958;28;96864;-66
2022/11/27 18:08:51;;;;;;;11.05;6.15;;;;;;;15.51;nan;100575.41;10319336;28;99033;-67
2022/11/27 18:13:54;;;;;;;11.85;5.90;;;;;;;15.51;nan;100586.00;10322041;28;97854;-68
2022/11/27 18:19:01;;;;;;;9.10;6.13;;;;;;;15.51;nan;100591.31;10320692;28;97734;-63
2022/11/27 18:24:05;;;;;;;9.43;6.32;;;;;;;15.49;nan;100587.88;10328045;28;97073;-63
2022/11/27 18:29:26;;;;;;;10.68;5.57;;;;;;;15.51;nan;100597.44;10328712;28;97797;-66
2022/11/27 18:34:31;;;;;;;9.48;5.82;;;;;;;15.51;nan;100601.91;10312443;28;97714;-66
2022/11/27 18:39:35;;;;;;;9.10;6.05;;;;;;;15.50;nan;100605.50;10324873;28;98829;-64
2022/11/27 18:44:38;;;;;;;11.75;5.95;;;;;;;15.46;nan;100609.25;10327723;28;98387;-61
2022/11/27 18:53:02;;;;;;;6.95;4.57;;;;;;;19.67;66.09;101166.41;10430761;27;98329;-64
2022/11/27 18:58:05;;;;;;;9.45;5.28;;;;;;;18.91;68.83;101158.63;10389410;27;97800;-61
2022/11/27 19:03:08;;;;;;;7.00;4.40;;;;;;;18.80;69.11;101171.78;10404209;27;97104;-61
2022/11/27 19:08:13;;;;;;;7.13;4.70;;;;;;;18.80;69.00;101180.59;10412309;28;96699;-61
2022/11/27 19:13:16;;;;;;;;;;;;;;;18.82;69.04;101197.38;10409346;28;98878;-61
2022/11/27 19:18:19;;;;;;;11.15;4.75;;;;;;;18.94;69.15;101211.78;10395129;27;96852;-63
2022/11/27 19:23:23;;;;;;;9.27;5.07;;;;;;;18.88;69.89;101220.19;10402989;27;98501;-61
2022/11/27 19:28:26;;;;;;;;;;;;;;;18.86;70.19;101235.41;10399434;28;98866;-61
2022/11/27 19:33:29;;;;;;;11.85;5.18;;;;;;;18.81;70.25;101237.47;10377668;27;96862;-64
2022/11/27 19:38:34;;;;;;;7.32;4.65;;;;;;;18.84;70.36;101240.81;10377397;28;96758;-66
2022/11/27 19:43:38;;;;;;;9.88;4.35;;;;;;;18.85;70.46;101239.03;10398222;28;97065;-64
2022/11/27 19:48:41;;;;;;;9.38;4.80;;;;;;;18.84;70.74;101243.50;10390942;28;96872;-64
2022/11/27 19:53:45;;;;;;;8.48;4.78;;;;;;;18.90;70.78;101244.97;10384945;28;99346;-63
2022/11/27 19:58:49;;;;;;;7.15;4.05;;;;;;;19.00;70.49;101238.13;10389961;27;98581;-60
2022/11/27 20:03:52;;;;;;;22.90;11.07;;;;;;;19.08;70.42;101238.53;10365152;27;99045;-63
2022/11/27 20:09:00;;;;;;;22.83;13.20;;;;;;;19.47;69.97;101238.00;10361985;28;96820;-66
2022/11/27 20:14:04;;;;;;;21.83;13.50;;;;;;;19.34;70.78;101245.84;10374172;28;97313;-66
2022/11/27 20:19:07;;;;;;;23.23;14.60;;;;;;;19.24;71.93;101240.22;10373856;28;96988;-64
2022/11/27 20:24:12;;;;;;;29.65;15.20;;;;;;;19.27;72.09;101236.47;10367943;28;96984;-65
2022/11/27 20:29:15;;;;;;;24.65;14.30;;;;;;;19.27;72.19;101256.03;10374177;28;98903;-68
2022/11/27 20:34:21;;;;;;;23.20;15.48;;;;;;;19.50;71.91;101260.03;10370163;28;99190;-68
2022/11/27 20:39:27;;;;;;;23.77;15.07;;;;;;;19.58;71.13;101265.75;10361912;28;96990;-66
2022/11/27 20:44:30;;;;;;;26.60;14.23;;;;;;;19.67;71.61;101275.00;10370183;28;99058;-70
2022/11/27 20:49:34;;;;;;;25.60;14.95;;;;;;;19.53;71.59;101283.88;10372928;28;96807;-60
2022/11/27 20:54:38;;;;;;;22.83;14.57;;;;;;;19.65;70.91;101295.66;10381391;27;99130;-62
2022/11/27 20:59:41;;;;;;;25.27;17.02;;;;;;;19.50;71.20;101302.75;10374388;28;99031;-68
2022/11/27 21:04:45;;;;;;;24.63;15.70;;;;;;;19.45;71.01;101303.97;10363649;28;96808;-68
2022/11/27 21:30:00;;;;;;;19.83;7.40;;;;;;;13.57;77.45;101298.34;10445433;27;97577;-86
2022/11/27 21:35:04;;;;;;;15.55;7.50;;;;;;;13.05;77.95;101300.19;10402752;27;97337;-83
2022/11/27 21:40:09;;;;;;;16.88;7.97;;;;;;;12.62;78.33;101298.00;10394908;27;98557;-83
2022/11/27 21:45:15;;;;;;;21.00;8.93;;;;;;;12.25;79.76;101314.13;10410694;27;98585;-81
2022/11/27 21:50:18;;;;;;;56.60;9.82;;;;;;;11.97;80.58;101323.75;10418081;27;96993;-81
2022/11/27 21:55:22;;;;;;;168.13;17.00;;;;;;;11.80;81.27;101348.84;10415311;27;96888;-80
2022/11/27 22:00:26;;;;;;;281.95;23.90;;;;;;;11.72;82.31;101351.69;10410145;27;98243;-83
2022/11/27 22:05:29;;;;;;;149.02;15.57;;;;;;;11.64;82.14;101350.16;10413539;27;97583;-82
2022/11/27 22:10:33;;;;;;;160.68;15.23;;;;;;;11.47;82.47;101352.38;10402904;27;97341;-83
2022/11/27 22:15:39;;;;;;;266.58;19.80;;;;;;;11.31;82.82;101358.03;10420067;27;96750;-82
2022/11/27 22:20:43;;;;;;;208.88;17.30;;;;;;;11.27;83.26;101358.13;10406563;27;101739;-82
2022/11/27 22:25:46;;;;;;;46.15;10.48;;;;;;;11.31;83.05;101365.06;10399431;27;99024;-84
2022/11/27 22:30:51;;;;;;;75.93;10.68;;;;;;;11.21;82.75;101369.72;10405491;27;98061;-81
2022/11/27 22:35:54;;;;;;;44.25;9.65;;;;;;;11.12;84.02;101369.94;10415669;27;97004;-81
2022/11/27 22:40:58;;;;;;;26.17;7.40;;;;;;;11.11;83.73;101369.97;10386857;28;97469;-81
2022/11/27 22:46:06;;;;;;;137.10;14.20;;;;;;;11.10;83.42;101365.59;10382145;28;98226;-80
2022/11/27 22:51:10;;;;;;;40.63;7.95;;;;;;;11.08;83.46;101356.81;10364266;28;96770;-80
2022/11/27 22:56:14;;;;;;;119.68;13.68;;;;;;;11.01;84.17;101352.59;10369976;28;100690;-80
2022/11/27 23:01:20;;;;;;;187.68;15.73;;;;;;;10.93;84.13;101355.44;10376965;28;97127;-82
2022/11/27 23:06:24;;;;;;;193.13;15.90;;;;;;;10.93;84.34;101363.34;10375939;28;97774;-82
2022/11/27 23:11:28;;;;;;;127.07;12.82;;;;;;;11.01;83.86;101369.28;10385340;28;98758;-82
2022/11/27 23:16:33;;;;;;;72.07;10.93;;;;;;;11.15;83.83;101368.97;10387222;28;97386;-82
2022/11/27 23:21:37;;;;;;;;;;;;;;;11.16;84.03;101363.66;10392489;28;96913;-81
2022/11/27 23:26:41;;;;;;;53.80;9.27;;;;;;;11.23;83.50;101372.31;10383088;28;98887;-84
2022/11/27 23:31:48;;;;;;;18.33;7.32;;;;;;;11.24;82.91;101387.19;10377759;28;96771;-81
2022/11/27 23:36:53;;;;;;;36.60;8.30;;;;;;;11.29;82.82;101403.75;10382261;28;96801;-81
2022/11/27 23:41:56;;;;;;;14.85;6.28;;;;;;;11.36;82.37;101400.06;10377000;28;97263;-81
2022/11/27 23:47:01;;;;;;;31.05;6.97;;;;;;;11.39;82.65;101400.88;10381546;28;96765;-81
2022/11/27 23:52:05;;;;;;;42.25;7.68;;;;;;;11.34;82.39;101386.06;10372268;28;96891;-81
2022/11/27 23:57:08;;;;;;;83.43;9.43;;;;;;;11.31;82.67;101383.53;10381195;28;98928;-80
